createdAt,value
2023-03-06T00:00:35.772Z,2.40
2023-03-06T00:03:04.869Z,2.40
2023-03-06T00:05:33.130Z,2.40
2023-03-06T00:08:04.120Z,2.40
2023-03-06T00:10:33.129Z,2.40
2023-03-06T00:13:05.718Z,2.40
2023-03-06T00:15:35.007Z,2.40
2023-03-06T00:18:05.829Z,2.40
2023-03-06T00:20:55.419Z,2.40
2023-03-06T00:23:23.472Z,2.30
2023-03-06T00:25:51.389Z,2.30
2023-03-06T00:28:19.803Z,2.30
2023-03-06T00:30:50.854Z,2.40
2023-03-06T00:33:18.926Z,2.30
2023-03-06T00:35:46.844Z,2.30
2023-03-06T00:38:15.870Z,2.30
2023-03-06T00:40:43.871Z,2.30
2023-03-06T00:43:12.203Z,2.30
2023-03-06T00:45:40.749Z,2.30
2023-03-06T00:48:11.200Z,2.30
2023-03-06T00:50:39.654Z,2.30
2023-03-06T00:53:07.695Z,2.30
2023-03-06T00:55:35.637Z,2.30
2023-03-06T00:58:03.872Z,2.30
2023-03-06T01:00:31.846Z,2.30
2023-03-06T01:03:00.431Z,2.30
2023-03-06T01:05:29.745Z,2.30
2023-03-06T01:07:58.201Z,2.30
2023-03-06T01:10:28.432Z,2.30
2023-03-06T01:12:56.388Z,2.30
2023-03-06T01:15:27.131Z,2.30
2023-03-06T01:17:55.370Z,2.30
2023-03-06T01:20:23.500Z,2.20
2023-03-06T01:22:54.978Z,2.30
2023-03-06T01:25:24.237Z,2.30
2023-03-06T01:27:53.038Z,2.20
2023-03-06T01:30:21.573Z,2.30
2023-03-06T01:32:49.838Z,2.30
2023-03-06T01:35:18.139Z,2.20
2023-03-06T01:37:46.099Z,2.20
2023-03-06T01:40:15.787Z,2.20
2023-03-06T01:42:45.460Z,2.20
2023-03-06T01:46:07.364Z,2.20
2023-03-06T01:48:35.626Z,2.20
2023-03-06T01:51:03.634Z,2.20
2023-03-06T01:53:34.625Z,2.20
2023-03-06T01:56:04.355Z,2.20
2023-03-06T01:58:36.006Z,2.20
2023-03-06T02:01:04.950Z,2.20
2023-03-06T02:03:33.626Z,2.20
2023-03-06T02:06:01.746Z,2.20
2023-03-06T02:08:33.296Z,2.20
2023-03-06T02:11:11.021Z,2.20
2023-03-06T02:13:40.298Z,2.20
2023-03-06T02:16:10.656Z,2.10
2023-03-06T02:21:39.859Z,2.10
2023-03-06T02:24:19.826Z,2.10
2023-03-06T02:26:49.604Z,2.10
2023-03-06T02:29:22.677Z,2.10
2023-03-06T02:31:51.350Z,2.10
2023-03-06T02:34:53.882Z,2.10
2023-03-06T02:37:22.898Z,2.10
2023-03-06T02:39:57.375Z,2.10
2023-03-06T02:42:29.888Z,2.00
2023-03-06T02:45:01.913Z,2.00
2023-03-06T02:47:30.256Z,2.00
2023-03-06T02:49:58.601Z,2.10
2023-03-06T02:52:27.285Z,2.10
2023-03-06T02:54:57.244Z,2.10
2023-03-06T02:57:28.884Z,2.10
2023-03-06T02:59:59.277Z,2.00
2023-03-06T03:02:27.331Z,2.10
2023-03-06T03:04:55.686Z,2.10
2023-03-06T03:07:24.624Z,2.10
2023-03-06T03:09:52.688Z,2.10
2023-03-06T03:12:22.374Z,2.10
2023-03-06T03:14:52.114Z,2.10
2023-03-06T03:17:20.809Z,2.00
2023-03-06T03:19:48.853Z,2.00
2023-03-06T03:22:20.535Z,2.00
2023-03-06T03:24:49.526Z,2.00
2023-03-06T03:27:20.600Z,2.00
2023-03-06T03:29:49.012Z,2.00
2023-03-06T03:32:19.705Z,2.00
2023-03-06T03:34:47.837Z,2.00
2023-03-06T03:37:15.800Z,2.00
2023-03-06T03:39:44.123Z,2.00
2023-03-06T03:42:13.009Z,2.00
2023-03-06T03:44:41.546Z,2.00
2023-03-06T03:47:10.031Z,1.90
2023-03-06T03:49:40.383Z,2.00
2023-03-06T03:52:08.812Z,2.00
2023-03-06T03:54:41.405Z,1.90
2023-03-06T03:57:09.947Z,1.90
2023-03-06T03:59:42.122Z,1.90
2023-03-06T04:02:23.791Z,1.90
2023-03-06T04:05:01.143Z,1.90
2023-03-06T04:07:29.656Z,1.90
2023-03-06T04:09:57.797Z,1.90
2023-03-06T04:12:27.701Z,1.90
2023-03-06T04:14:55.719Z,1.80
2023-03-06T04:17:24.861Z,1.80
2023-03-06T04:19:54.843Z,1.80
2023-03-06T04:22:25.235Z,1.80
2023-03-06T04:24:53.563Z,1.80
2023-03-06T04:27:22.267Z,1.80
2023-03-06T04:29:50.415Z,1.80
2023-03-06T04:32:21.247Z,1.80
2023-03-06T04:34:49.732Z,1.80
2023-03-06T04:37:21.056Z,1.80
2023-03-06T04:39:50.551Z,1.80
2023-03-06T04:42:19.299Z,1.80
2023-03-06T04:44:48.080Z,1.80
2023-03-06T04:47:18.729Z,1.80
2023-03-06T04:50:10.188Z,1.80
2023-03-06T04:52:40.574Z,1.70
2023-03-06T04:55:13.101Z,1.70
2023-03-06T04:57:43.386Z,1.70
2023-03-06T05:00:17.252Z,1.70
2023-03-06T05:02:46.228Z,1.70
2023-03-06T05:05:15.414Z,1.70
2023-03-06T05:07:43.870Z,1.70
2023-03-06T05:10:18.394Z,1.70
2023-03-06T05:12:46.989Z,1.70
2023-03-06T05:15:16.308Z,1.70
2023-03-06T05:17:46.821Z,1.70
2023-03-06T05:20:16.127Z,1.60
2023-03-06T05:22:45.332Z,1.70
2023-03-06T05:25:15.110Z,1.70
2023-03-06T05:27:43.201Z,1.70
2023-03-06T05:30:14.459Z,1.70
2023-03-06T05:32:43.158Z,1.70
2023-03-06T05:35:17.985Z,1.70
2023-03-06T05:37:47.371Z,1.70
2023-03-06T05:40:21.781Z,1.70
2023-03-06T05:42:50.032Z,1.70
2023-03-06T05:45:18.980Z,1.70
2023-03-06T05:47:47.789Z,1.70
2023-03-06T05:50:15.982Z,1.70
2023-03-06T05:52:43.971Z,1.70
2023-03-06T05:55:13.672Z,1.70
2023-03-06T05:57:43.255Z,1.70
2023-03-06T06:00:13.656Z,1.60
2023-03-06T06:02:42.846Z,1.60
2023-03-06T06:05:13.306Z,1.70
2023-03-06T06:07:42.141Z,1.70
2023-03-06T06:10:12.014Z,1.70
2023-03-06T06:12:42.479Z,1.70
2023-03-06T06:15:12.549Z,1.80
2023-03-06T06:20:31.942Z,1.70
2023-03-06T06:23:00.665Z,1.80
2023-03-06T06:25:52.135Z,1.80
2023-03-06T06:28:41.976Z,1.80
2023-03-06T06:31:12.131Z,1.80
2023-03-06T06:33:41.489Z,1.80
2023-03-06T06:36:17.982Z,1.80
2023-03-06T06:38:48.442Z,1.80
2023-03-06T06:44:26.869Z,1.80
2023-03-06T06:49:43.734Z,1.90
2023-03-06T06:52:12.198Z,1.90
2023-03-06T06:54:42.133Z,1.90
2023-03-06T06:57:11.599Z,1.90
2023-03-06T06:59:41.102Z,2.00
2023-03-06T07:02:15.098Z,2.00
2023-03-06T07:05:00.240Z,2.00
2023-03-06T07:07:31.344Z,2.00
2023-03-06T07:09:59.285Z,2.00
2023-03-06T07:12:27.456Z,2.00
2023-03-06T07:14:56.891Z,2.00
2023-03-06T07:17:25.234Z,2.10
2023-03-06T07:19:53.285Z,2.10
2023-03-06T07:22:21.708Z,2.10
2023-03-06T07:24:49.619Z,2.20
2023-03-06T07:27:18.715Z,2.10
2023-03-06T07:29:46.660Z,2.20
2023-03-06T07:32:16.312Z,2.20
2023-03-06T07:34:45.227Z,2.20
2023-03-06T07:37:13.936Z,2.20
2023-03-06T07:39:42.229Z,2.20
2023-03-06T07:42:12.731Z,2.30
2023-03-06T07:44:47.749Z,2.30
2023-03-06T07:47:17.198Z,2.30
2023-03-06T07:49:45.866Z,2.40
2023-03-06T07:52:13.775Z,2.40
2023-03-06T07:54:42.071Z,2.40
2023-03-06T07:57:10.259Z,2.50
2023-03-06T07:59:38.232Z,2.50
2023-03-06T08:02:06.421Z,2.60
2023-03-06T08:04:36.601Z,2.50
2023-03-06T08:07:05.090Z,2.50
2023-03-06T08:09:33.022Z,2.60
2023-03-06T08:12:01.220Z,2.60
2023-03-06T08:14:29.358Z,2.60
2023-03-06T08:16:57.964Z,2.60
2023-03-06T08:19:26.087Z,2.60
2023-03-06T08:21:55.325Z,2.70
2023-03-06T08:24:24.295Z,2.70
2023-03-06T08:26:53.088Z,2.70
2023-03-06T08:29:21.073Z,2.80
2023-03-06T08:31:49.223Z,2.90
2023-03-06T08:34:19.721Z,3.00
2023-03-06T08:36:48.124Z,3.10
2023-03-06T08:39:18.696Z,3.20
2023-03-06T08:41:46.583Z,3.30
2023-03-06T08:44:15.441Z,3.30
2023-03-06T08:46:43.410Z,3.40
2023-03-06T08:49:13.780Z,3.40
2023-03-06T08:51:42.421Z,3.30
2023-03-06T08:54:13.202Z,3.50
2023-03-06T08:56:42.700Z,3.50
2023-03-06T08:59:13.436Z,3.50
2023-03-06T09:01:42.098Z,3.50
2023-03-06T09:04:11.792Z,3.50
2023-03-06T09:06:42.937Z,3.50
2023-03-06T09:09:11.163Z,3.50
2023-03-06T09:11:39.476Z,3.50
2023-03-06T09:14:09.061Z,3.60
2023-03-06T09:16:37.121Z,3.60
2023-03-06T09:19:05.053Z,3.70
2023-03-06T09:21:33.035Z,3.70
2023-03-06T09:24:01.177Z,3.70
2023-03-06T09:26:43.392Z,3.70
2023-03-06T09:29:16.260Z,3.80
2023-03-06T09:31:44.776Z,3.80
2023-03-06T09:34:12.765Z,3.80
2023-03-06T09:36:55.619Z,3.80
2023-03-06T09:39:27.554Z,3.90
2023-03-06T09:41:58.908Z,3.90
2023-03-06T09:44:30.516Z,4.00
2023-03-06T09:47:14.959Z,4.10
2023-03-06T09:50:06.325Z,4.10
2023-03-06T09:52:43.521Z,4.20
2023-03-06T09:55:15.766Z,4.30
2023-03-06T09:57:51.283Z,4.30
2023-03-06T10:00:27.717Z,4.30
2023-03-06T10:03:09.426Z,4.40
2023-03-06T10:05:43.420Z,4.40
2023-03-06T10:08:22.256Z,4.50
2023-03-06T10:10:55.247Z,4.50
2023-03-06T10:13:29.103Z,4.60
2023-03-06T10:16:12.275Z,4.50
2023-03-06T10:18:40.841Z,4.70
2023-03-06T10:21:32.064Z,4.70
2023-03-06T10:24:06.801Z,4.80
2023-03-06T10:26:41.036Z,4.80
2023-03-06T10:29:27.933Z,4.80
2023-03-06T10:32:03.281Z,4.90
2023-03-06T10:34:38.202Z,5.00
2023-03-06T10:37:18.421Z,5.10
2023-03-06T10:39:47.583Z,5.10
2023-03-06T10:42:15.747Z,5.10
2023-03-06T10:44:43.743Z,5.10
2023-03-06T10:47:35.192Z,5.10
2023-03-06T10:50:08.378Z,5.10
2023-03-06T10:52:37.068Z,5.20
2023-03-06T10:55:26.424Z,5.20
2023-03-06T10:57:55.115Z,5.20
2023-03-06T11:00:41.051Z,5.20
2023-03-06T11:03:23.303Z,5.20
2023-03-06T11:06:01.227Z,5.30
2023-03-06T11:08:30.520Z,5.10
2023-03-06T11:11:02.420Z,5.10
2023-03-06T11:17:52.502Z,5.20
2023-03-06T11:20:24.994Z,5.20
2023-03-06T11:22:57.019Z,5.20
2023-03-06T11:25:30.976Z,5.20
2023-03-06T11:28:04.527Z,5.10
2023-03-06T11:30:41.886Z,5.00
2023-03-06T11:33:18.177Z,4.80
2023-03-06T11:35:55.552Z,4.90
2023-03-06T11:38:32.154Z,4.90
2023-03-06T11:41:03.619Z,4.90
2023-03-06T11:43:37.253Z,4.90
2023-03-06T11:46:13.047Z,4.90
2023-03-06T11:48:47.676Z,5.10
2023-03-06T11:51:21.064Z,5.00
2023-03-06T11:53:49.759Z,5.00
2023-03-06T11:56:31.189Z,5.10
2023-03-06T11:59:16.456Z,5.10
2023-03-06T12:01:51.478Z,5.00
2023-03-06T12:04:37.866Z,5.20
2023-03-06T12:07:20.448Z,5.20
2023-03-06T12:09:56.681Z,5.20
2023-03-06T12:12:46.995Z,5.20
2023-03-06T12:15:30.568Z,5.20
2023-03-06T12:18:14.511Z,5.20
2023-03-06T12:20:58.134Z,5.20
2023-03-06T12:24:00.654Z,5.30
2023-03-06T12:26:55.432Z,5.30
2023-03-06T12:29:40.474Z,5.20
2023-03-06T12:32:16.890Z,5.30
2023-03-06T12:35:06.208Z,5.40
2023-03-06T12:37:48.102Z,5.40
2023-03-06T12:40:36.960Z,5.40
2023-03-06T12:43:27.536Z,5.40
2023-03-06T12:45:59.112Z,5.50
2023-03-06T12:48:31.788Z,5.50
2023-03-06T12:51:02.930Z,5.50
2023-03-06T12:53:32.820Z,5.50
2023-03-06T12:56:04.693Z,5.50
2023-03-06T12:58:53.142Z,5.50
2023-03-06T13:01:44.754Z,5.50
2023-03-06T13:04:34.431Z,5.50
2023-03-06T13:07:27.840Z,5.50
2023-03-06T13:10:15.379Z,5.50
2023-03-06T13:12:51.121Z,5.50
2023-03-06T13:15:39.576Z,5.60
2023-03-06T13:18:47.200Z,5.60
2023-03-06T13:22:01.903Z,5.60
2023-03-06T13:24:33.089Z,5.60
2023-03-06T13:27:09.736Z,5.70
2023-03-06T13:30:20.577Z,5.80
2023-03-06T13:32:50.532Z,5.80
2023-03-06T13:35:53.057Z,5.70
2023-03-06T13:38:35.589Z,5.80
2023-03-06T13:41:27.168Z,5.90
2023-03-06T13:43:57.051Z,5.90
2023-03-06T13:46:29.845Z,5.90
2023-03-06T13:49:07.052Z,5.90
2023-03-06T13:51:37.320Z,5.70
2023-03-06T13:54:22.263Z,5.80
2023-03-06T13:57:13.271Z,5.80
2023-03-06T14:00:09.559Z,5.70
2023-03-06T14:03:29.147Z,5.70
2023-03-06T14:05:59.030Z,5.70
2023-03-06T14:08:29.682Z,5.70
2023-03-06T14:11:03.546Z,5.70
2023-03-06T14:13:46.650Z,5.70
2023-03-06T14:16:22.170Z,5.90
2023-03-06T14:18:51.741Z,6.00
2023-03-06T14:21:30.787Z,6.00
2023-03-06T14:24:00.715Z,6.10
2023-03-06T14:26:33.382Z,6.00
2023-03-06T14:29:02.884Z,6.00
2023-03-06T14:31:33.798Z,6.20
2023-03-06T14:34:03.478Z,6.30
2023-03-06T14:36:35.666Z,6.30
2023-03-06T14:39:09.098Z,6.30
2023-03-06T14:41:38.100Z,6.30
2023-03-06T14:44:22.308Z,6.50
2023-03-06T14:46:52.494Z,6.40
2023-03-06T14:49:23.166Z,6.30
2023-03-06T14:51:55.116Z,6.40
2023-03-06T14:54:28.909Z,6.40
2023-03-06T14:57:02.418Z,6.50
2023-03-06T14:59:34.716Z,6.60
2023-03-06T15:02:06.324Z,6.60
2023-03-06T15:04:41.229Z,6.60
2023-03-06T15:07:14.052Z,6.50
2023-03-06T15:09:45.692Z,6.40
2023-03-06T15:12:35.899Z,6.40
2023-03-06T15:15:21.484Z,6.30
2023-03-06T15:17:49.779Z,6.20
2023-03-06T15:20:43.586Z,6.10
2023-03-06T15:23:19.383Z,6.10
2023-03-06T15:25:54.199Z,6.00
2023-03-06T15:28:28.846Z,6.00
2023-03-06T15:31:22.738Z,6.00
2023-03-06T15:34:14.630Z,5.90
2023-03-06T15:36:44.901Z,5.90
2023-03-06T15:39:37.366Z,5.90
2023-03-06T15:42:18.749Z,5.80
2023-03-06T15:44:52.867Z,5.80
2023-03-06T15:47:21.326Z,5.70
2023-03-06T15:49:51.890Z,5.70
2023-03-06T15:52:20.841Z,5.60
2023-03-06T15:54:50.552Z,5.50
2023-03-06T15:57:23.488Z,5.40
2023-03-06T15:59:52.221Z,5.50
2023-03-06T16:02:22.219Z,5.40
2023-03-06T16:04:51.268Z,5.40
2023-03-06T16:07:19.241Z,5.30
2023-03-06T16:09:47.653Z,5.30
2023-03-06T16:12:18.954Z,5.00
2023-03-06T16:14:48.533Z,5.00
2023-03-06T16:17:17.597Z,4.90
2023-03-06T16:19:45.749Z,4.90
2023-03-06T16:22:14.556Z,4.80
2023-03-06T16:24:43.263Z,4.70
2023-03-06T16:27:18.794Z,4.60
2023-03-06T16:29:46.759Z,4.40
2023-03-06T16:32:15.319Z,4.50
2023-03-06T16:34:43.354Z,4.40
2023-03-06T16:37:13.937Z,4.50
2023-03-06T16:39:42.144Z,4.50
2023-03-06T16:42:11.386Z,4.40
2023-03-06T16:44:40.829Z,4.40
2023-03-06T16:47:11.833Z,4.40
2023-03-06T16:49:39.918Z,4.40
2023-03-06T16:52:08.583Z,4.40
2023-03-06T16:54:36.549Z,4.30
2023-03-06T16:57:04.846Z,4.30
2023-03-06T16:59:32.879Z,4.30
2023-03-06T17:02:02.288Z,4.30
2023-03-06T17:04:30.267Z,4.30
2023-03-06T17:06:58.241Z,4.20
2023-03-06T17:09:26.343Z,4.20
2023-03-06T17:11:54.289Z,4.20
2023-03-06T17:14:22.274Z,4.20
2023-03-06T17:16:50.415Z,4.20
2023-03-06T17:19:19.689Z,4.20
2023-03-06T17:21:48.623Z,4.10
2023-03-06T17:24:17.062Z,4.10
2023-03-06T17:26:46.861Z,4.10
2023-03-06T17:29:37.158Z,4.10
2023-03-06T17:32:05.623Z,4.10
2023-03-06T17:34:36.028Z,4.10
2023-03-06T17:37:04.647Z,4.00
2023-03-06T17:39:34.208Z,4.00
2023-03-06T17:42:03.246Z,4.00
2023-03-06T17:44:31.289Z,3.90
2023-03-06T17:47:00.207Z,3.90
2023-03-06T17:49:28.288Z,3.90
2023-03-06T17:51:59.751Z,3.90
2023-03-06T17:54:30.261Z,3.90
2023-03-06T17:57:01.151Z,3.90
2023-03-06T17:59:33.014Z,3.90
2023-03-06T18:02:01.491Z,3.80
2023-03-06T18:04:30.243Z,3.80
2023-03-06T18:06:59.573Z,3.80
2023-03-06T18:09:27.941Z,3.80
2023-03-06T18:11:55.982Z,3.80
2023-03-06T18:14:24.422Z,3.70
2023-03-06T18:16:52.675Z,3.70
2023-03-06T18:19:20.640Z,3.70
2023-03-06T18:21:48.674Z,3.70
2023-03-06T18:24:19.363Z,3.60
2023-03-06T18:26:47.613Z,3.70
2023-03-06T18:29:15.590Z,3.70
2023-03-06T18:34:32.109Z,3.60
2023-03-06T18:37:00.348Z,3.60
2023-03-06T18:39:31.195Z,3.60
2023-03-06T18:42:00.386Z,3.60
2023-03-06T18:44:30.867Z,3.60
2023-03-06T18:46:59.282Z,3.60
2023-03-06T18:49:27.570Z,3.60
2023-03-06T18:51:56.144Z,3.60
2023-03-06T18:54:49.137Z,3.60
2023-03-06T18:57:17.363Z,3.50
2023-03-06T18:59:46.218Z,3.50
2023-03-06T19:02:14.307Z,3.50
2023-03-06T19:04:42.399Z,3.50
2023-03-06T19:07:10.450Z,3.50
2023-03-06T19:09:38.716Z,3.40
2023-03-06T19:12:08.822Z,3.40
2023-03-06T19:14:36.855Z,3.40
2023-03-06T19:17:05.130Z,3.40
2023-03-06T19:19:33.394Z,3.40
2023-03-06T19:22:01.985Z,3.40
2023-03-06T19:24:30.090Z,3.30
2023-03-06T19:26:58.754Z,3.30
2023-03-06T19:29:28.503Z,3.30
2023-03-06T19:31:57.125Z,3.30
2023-03-06T19:34:25.705Z,3.30
2023-03-06T19:36:53.639Z,3.30
2023-03-06T19:39:21.673Z,3.30
2023-03-06T19:41:50.176Z,3.30
2023-03-06T19:44:18.118Z,3.20
2023-03-06T19:46:48.594Z,3.20
2023-03-06T19:49:18.252Z,3.20
2023-03-06T19:51:47.687Z,3.20
2023-03-06T19:54:18.053Z,3.20
2023-03-06T19:56:47.071Z,3.20
2023-03-06T19:59:15.164Z,3.20
2023-03-06T20:01:43.178Z,3.20
2023-03-06T20:04:12.675Z,3.20
2023-03-06T20:06:41.021Z,3.20
2023-03-06T20:09:09.988Z,3.20
2023-03-06T20:11:38.117Z,3.20
2023-03-06T20:14:08.670Z,3.20
2023-03-06T20:16:37.292Z,3.20
2023-03-06T20:19:06.398Z,3.10
2023-03-06T20:21:38.097Z,3.10
2023-03-06T20:24:07.906Z,3.10
2023-03-06T20:26:38.039Z,3.10
2023-03-06T20:29:06.686Z,3.10
2023-03-06T20:31:34.741Z,3.10
2023-03-06T20:34:03.821Z,3.10
2023-03-06T20:36:36.469Z,3.10
2023-03-06T20:39:13.842Z,3.10
2023-03-06T20:41:44.277Z,3.10
2023-03-06T20:44:15.440Z,3.10
2023-03-06T20:46:44.581Z,3.10
2023-03-06T20:49:14.047Z,3.00
2023-03-06T20:51:43.552Z,3.10
2023-03-06T20:54:16.164Z,3.10
2023-03-06T20:56:49.226Z,3.10
2023-03-06T20:59:18.134Z,3.10
2023-03-06T21:01:48.000Z,3.00
2023-03-06T21:04:17.018Z,3.00
2023-03-06T21:06:47.324Z,3.00
2023-03-06T21:09:22.098Z,3.00
2023-03-06T21:11:51.820Z,3.00
2023-03-06T21:14:20.314Z,3.00
2023-03-06T21:16:49.483Z,3.00
2023-03-06T21:19:18.038Z,3.00
2023-03-06T21:21:47.595Z,2.90
2023-03-06T21:24:21.342Z,2.90
2023-03-06T21:26:51.207Z,3.00
2023-03-06T21:29:19.689Z,2.90
2023-03-06T21:31:50.737Z,2.90
2023-03-06T21:34:18.724Z,2.90
2023-03-06T21:36:47.124Z,2.90
2023-03-06T21:39:16.704Z,2.90
2023-03-06T21:41:46.334Z,2.90
2023-03-06T21:44:14.693Z,2.90
2023-03-06T21:46:43.096Z,2.90
2023-03-06T21:49:11.114Z,2.90
2023-03-06T21:51:39.081Z,2.90
2023-03-06T21:54:09.855Z,2.90
2023-03-06T21:59:33.502Z,2.90
2023-03-06T22:02:02.247Z,2.90
2023-03-06T22:04:31.213Z,2.90
2023-03-06T22:07:00.205Z,2.90
2023-03-06T22:09:28.335Z,2.90
2023-03-06T22:12:18.996Z,2.90
2023-03-06T22:14:48.124Z,2.90
2023-03-06T22:17:16.208Z,2.90
2023-03-06T22:19:44.281Z,2.90
2023-03-06T22:22:12.354Z,2.90
2023-03-06T22:24:41.285Z,2.80
2023-03-06T22:27:09.720Z,2.80
2023-03-06T22:29:39.128Z,2.90
2023-03-06T22:32:08.644Z,2.90
2023-03-06T22:34:37.168Z,2.90
2023-03-06T22:37:05.573Z,2.80
2023-03-06T22:39:34.102Z,2.80
2023-03-06T22:42:03.320Z,2.90
2023-03-06T22:44:33.694Z,2.80
2023-03-06T22:47:03.011Z,2.80
2023-03-06T22:49:30.962Z,2.80
2023-03-06T22:51:59.021Z,2.90
2023-03-06T22:54:27.053Z,2.80
2023-03-06T22:56:56.171Z,2.80
2023-03-06T22:59:24.719Z,2.80
2023-03-06T23:01:52.661Z,2.80
2023-03-06T23:04:22.044Z,2.80
2023-03-06T23:06:50.216Z,2.80
2023-03-06T23:09:20.693Z,2.80
2023-03-06T23:12:11.483Z,2.80
2023-03-06T23:14:58.050Z,2.80
2023-03-06T23:17:45.597Z,2.80
2023-03-06T23:20:33.433Z,2.80
2023-03-06T23:23:20.427Z,2.80
2023-03-06T23:25:50.420Z,2.80
2023-03-06T23:28:18.910Z,2.80
2023-03-06T23:30:47.057Z,2.80
2023-03-06T23:33:15.015Z,2.80
2023-03-06T23:35:45.198Z,2.70
2023-03-06T23:38:13.181Z,2.70
2023-03-06T23:40:42.581Z,2.80
2023-03-06T23:43:10.554Z,2.70
2023-03-06T23:45:38.557Z,2.80
2023-03-06T23:48:08.233Z,2.70
2023-03-06T23:50:36.210Z,2.70
2023-03-06T23:53:06.347Z,2.70
2023-03-06T23:55:34.286Z,2.70
2023-03-06T23:58:02.453Z,2.70
